Time;durP1;ratioP1;P1;durP2;ratioP2;P2;SDS_P1;SDS_P2;PMS_P1;PMS_P2;Temp;Humidity;BMP_temperature;BMP_pressure;BME280_temperature;BME280_humidity;BME280_pressure;Samples;Min_cycle;Max_cycle;Signal;HPM_P1;HPM_P2
2022/10/16 00:01:43;;;;;;;;;;;;;;;9.92;52.42;99845.86;1670581;85;20102;-70
2022/10/16 00:04:10;;;;;;;;;;;;;;;9.90;52.44;99844.34;1671704;85;20115;-69
2022/10/16 00:06:37;;;;;;;;;;;;;;;9.88;52.50;99845.01;1673459;85;20118;-68
2022/10/16 00:09:04;;;;;;;;;;;;;;;9.87;52.41;99838.02;1692780;84;21162;-69
2022/10/16 00:11:36;;;;;;;;;;;;;;;9.85;52.46;99842.66;1672426;85;20090;-70
2022/10/16 00:14:05;;;;;;;;;;;;;;;9.83;52.52;99844.12;1668140;85;20417;-69
2022/10/16 00:16:31;;;;;;;;;;;;;;;9.81;52.57;99848.77;1676806;85;20091;-69
2022/10/16 00:18:58;;;;;;;;;;;;;;;9.80;52.53;99842.30;1663040;85;20098;-69
2022/10/16 00:21:26;;;;;;;;;;;;;;;9.79;52.54;99844.60;1687170;85;21178;-69
2022/10/16 00:23:54;;;;;;;;;;;;;;;9.78;52.60;99845.09;1690901;85;20457;-69
2022/10/16 00:26:20;;;;;;;;;;;;;;;9.75;52.57;99848.05;1681395;85;20119;-70
2022/10/16 00:28:49;;;;;;;;;;;;;;;9.75;52.57;99853.38;1662965;85;20154;-70
2022/10/16 00:31:16;;;;;;;;;;;;;;;9.74;52.55;99853.05;1682968;84;20245;-70
2022/10/16 00:33:43;;;;;;;;;;;;;;;9.74;52.58;99852.21;1663098;85;21186;-69
2022/10/16 00:36:12;;;;;;;;;;;;;;;9.71;52.62;99861.33;1662851;85;20126;-69
2022/10/16 00:38:38;;;;;;;;;;;;;;;9.69;52.65;99850.03;1672471;85;20119;-69
2022/10/16 00:41:06;;;;;;;;;;;;;;;9.69;52.67;99858.48;1686187;85;20126;-70
2022/10/16 00:43:39;;;;;;;;;;;;;;;9.68;52.67;99848.84;1692787;84;20095;-70
2022/10/16 00:46:17;;;;;;;;;;;;;;;9.66;52.65;99854.32;1663098;85;21166;-70
2022/10/16 00:48:51;;;;;;;;;;;;;;;9.64;52.59;99841.70;1693709;84;20074;-71
2022/10/16 00:51:19;;;;;;;;;;;;;;;9.62;52.61;99852.95;1668367;84;20122;-69
2022/10/16 00:53:46;;;;;;;;;;;;;;;9.62;52.66;99850.81;1662946;85;20534;-70
2022/10/16 00:56:12;;;;;;;;;;;;;;;9.60;52.66;99852.27;1663045;85;20111;-69
2022/10/16 00:58:39;;;;;;;;;;;;;;;9.58;52.69;99850.27;1696652;84;21272;-70
2022/10/16 01:01:06;;;;;;;;;;;;;;;9.57;52.70;99864.53;1683117;85;20076;-70
2022/10/16 01:03:34;;;;;;;;;;;;;;;9.56;52.67;99860.23;1690935;85;20437;-70
2022/10/16 01:06:14;;;;;;;;;;;;;;;9.55;52.68;99857.22;1680423;85;20086;-70
2022/10/16 01:08:54;;;;;;;;;;;;;;;9.54;52.75;99854.73;1685657;84;20111;-70
2022/10/16 01:11:25;;;;;;;;;;;;;;;9.50;52.77;99855.52;1679071;84;20610;-70
2022/10/16 01:13:54;;;;;;;;;;;;;;;9.47;52.89;99854.98;1665462;85;20428;-70
2022/10/16 01:16:24;;;;;;;;;;;;;;;9.44;52.93;99845.51;1696982;84;20475;-69
2022/10/16 01:18:55;;;;;;;;;;;;;;;9.43;52.88;99881.52;1705347;84;20316;-69
2022/10/16 01:21:30;;;;;;;;;;;;;;;9.43;52.82;99854.48;1694078;84;20124;-70
2022/10/16 01:24:23;;;;;;;;;;;;;;;9.43;52.82;99858.47;1689254;84;21233;-69
2022/10/16 01:27:12;;;;;;;;;;;;;;;9.42;52.82;99852.80;1663002;85;20094;-69
2022/10/16 01:29:54;;;;;;;;;;;;;;;9.40;52.89;99851.28;1674389;84;20102;-69
2022/10/16 01:32:29;;;;;;;;;;;;;;;9.37;52.97;99845.79;1690118;84;20435;-68
2022/10/16 01:34:59;;;;;;;;;;;;;;;9.34;53.00;99850.08;1674601;85;20133;-70
2022/10/16 01:37:32;;;;;;;;;;;;;;;9.32;53.02;99846.75;1670418;85;21224;-69
2022/10/16 01:40:00;;;;;;;;;;;;;;;9.32;53.03;99850.73;1670274;86;20518;-69
2022/10/16 01:42:40;;;;;;;;;;;;;;;9.33;53.02;99867.50;1677444;85;20084;-69
2022/10/16 01:45:07;;;;;;;;;;;;;;;9.33;52.99;99856.39;1672302;84;20159;-68
2022/10/16 01:47:34;;;;;;;;;;;;;;;9.30;53.03;99856.20;1670392;86;20150;-69
2022/10/16 01:50:00;;;;;;;;;;;;;;;9.30;53.07;99852.71;1670315;86;21160;-68
2022/10/16 01:52:27;;;;;;;;;;;;;;;9.29;53.06;99860.32;1670428;86;20130;-70
2022/10/16 01:54:54;;;;;;;;;;;;;;;9.29;53.04;99859.00;1670417;86;20106;-68
2022/10/16 01:57:21;;;;;;;;;;;;;;;9.29;53.01;99868.29;1651621;86;20488;-70
2022/10/16 01:59:51;;;;;;;;;;;;;;;9.31;52.89;99863.16;1670251;86;20195;-69
2022/10/16 02:02:17;;;;;;;;;;;;;;;9.29;52.94;99865.14;1670386;86;21160;-68
2022/10/16 02:04:46;;;;;;;;;;;;;;;9.27;52.96;99871.11;1670446;86;20130;-69
2022/10/16 02:07:13;;;;;;;;;;;;;;;9.27;52.98;99874.25;1670325;86;20177;-69
2022/10/16 02:09:41;;;;;;;;;;;;;;;9.26;52.96;99868.59;1670379;86;20086;-70
2022/10/16 02:12:17;;;;;;;;;;;;;;;9.26;52.92;99872.08;1670241;85;20106;-69
2022/10/16 02:14:43;;;;;;;;;;;;;;;9.28;52.81;99878.59;1670485;86;20483;-70
2022/10/16 02:17:14;;;;;;;;;;;;;;;9.28;52.81;99881.24;1670222;86;20159;-70
2022/10/16 02:19:41;;;;;;;;;;;;;;;9.28;52.84;99878.06;1670331;86;20078;-71
2022/10/16 02:22:10;;;;;;;;;;;;;;;9.27;52.77;99879.08;1670294;86;20155;-70
2022/10/16 02:24:49;;;;;;;;;;;;;;;9.28;52.72;99885.22;1670417;86;20118;-70
2022/10/16 02:27:32;;;;;;;;;;;;;;;9.26;52.69;99876.06;1670658;86;21227;-69
2022/10/16 02:30:08;;;;;;;;;;;;;;;9.26;52.71;99883.19;1670536;86;20135;-68
2022/10/16 02:32:37;;;;;;;;;;;;;;;9.22;52.78;99884.49;1651070;86;20467;-68
2022/10/16 02:35:04;;;;;;;;;;;;;;;9.21;52.83;99886.80;1672693;84;20130;-68
2022/10/16 02:37:30;;;;;;;;;;;;;;;9.22;52.76;99892.45;1664421;84;20126;-68
2022/10/16 02:39:57;;;;;;;;;;;;;;;9.23;52.74;99887.47;1686895;85;21173;-69
2022/10/16 02:42:29;;;;;;;;;;;;;;;9.23;52.72;99886.14;1691740;84;20098;-69
2022/10/16 02:44:56;;;;;;;;;;;;;;;9.22;52.73;99887.98;1671791;84;20087;-70
2022/10/16 02:47:23;;;;;;;;;;;;;;;9.22;52.73;99896.44;1663108;85;20094;-68
2022/10/16 02:49:49;;;;;;;;;;;;;;;9.20;52.78;99897.90;1667192;85;20137;-69
2022/10/16 02:52:15;;;;;;;;;;;;;;;9.17;52.81;99910.17;1676303;84;21283;-69
2022/10/16 02:54:42;;;;;;;;;;;;;;;9.15;52.84;99904.67;1679380;84;20111;-68
2022/10/16 02:57:08;;;;;;;;;;;;;;;9.15;52.83;99902.02;1688926;85;20107;-70
2022/10/16 02:59:34;;;;;;;;;;;;;;;9.16;52.82;99908.98;1677451;85;20141;-69
2022/10/16 03:02:01;;;;;;;;;;;;;;;9.15;52.90;99900.70;1684650;84;20132;-69
2022/10/16 03:04:27;;;;;;;;;;;;;;;9.14;52.92;99913.61;1681306;84;21177;-70
2022/10/16 03:06:53;;;;;;;;;;;;;;;9.13;52.89;99906.62;1674260;84;20098;-70
2022/10/16 03:09:19;;;;;;;;;;;;;;;9.12;52.86;99903.16;1677276;84;20096;-68
2022/10/16 03:11:46;;;;;;;;;;;;;;;9.13;52.86;99911.93;1675633;84;20074;-69
2022/10/16 03:14:12;;;;;;;;;;;;;;;9.12;52.87;99908.47;1703273;84;20086;-69
2022/10/16 03:16:39;;;;;;;;;;;;;;;9.13;52.92;99913.26;1682021;84;21090;-69
2022/10/16 03:19:05;;;;;;;;;;;;;;;9.12;52.92;99908.95;1663019;85;20123;-69
2022/10/16 03:21:32;;;;;;;;;;;;;;;9.12;52.98;99912.94;1669501;85;20450;-70
2022/10/16 03:23:58;;;;;;;;;;;;;;;9.07;53.13;99908.57;1663913;85;20447;-70
2022/10/16 03:26:25;;;;;;;;;;;;;;;9.00;53.42;99912.78;1663013;85;20134;-69
2022/10/16 03:28:51;;;;;;;;;;;;;;;8.91;53.67;99916.35;1663052;85;21178;-70
2022/10/16 03:31:17;;;;;;;;;;;;;;;8.84;53.96;99922.73;1682698;84;20086;-70
2022/10/16 03:33:44;;;;;;;;;;;;;;;8.78;54.22;99927.81;1675798;84;20170;-71
2022/10/16 03:36:10;;;;;;;;;;;;;;;8.73;54.41;99926.94;1665809;85;20162;-69
2022/10/16 03:38:37;;;;;;;;;;;;;;;8.68;54.63;99931.84;1670572;86;20106;-70
2022/10/16 03:41:03;;;;;;;;;;;;;;;8.63;54.80;99934.92;1670407;86;21279;-69
2022/10/16 03:43:30;;;;;;;;;;;;;;;8.62;54.91;99931.10;1680873;85;20138;-69
2022/10/16 03:45:56;;;;;;;;;;;;;;;8.56;55.07;99932.52;1670564;86;20134;-69
2022/10/16 03:48:23;;;;;;;;;;;;;;;8.52;55.21;99936.94;1670485;86;20189;-68
2022/10/16 03:50:50;;;;;;;;;;;;;;;8.47;55.37;99932.57;1670483;85;20129;-69
2022/10/16 03:53:16;;;;;;;;;;;;;;;8.44;55.50;99933.70;1670453;85;21230;-70
2022/10/16 03:55:43;;;;;;;;;;;;;;;8.43;55.63;99931.17;1670482;86;20142;-70
2022/10/16 03:58:10;;;;;;;;;;;;;;;8.40;55.73;99932.78;1670527;86;20122;-70
2022/10/16 04:00:45;;;;;;;;;;;;;;;8.36;55.86;99940.70;1670395;86;20439;-70
2022/10/16 04:03:11;;;;;;;;;;;;;;;8.32;56.02;99933.52;1670586;86;20163;-69
2022/10/16 04:05:37;;;;;;;;;;;;;;;8.27;56.18;99936.25;1670373;86;21158;-70
2022/10/16 04:08:04;;;;;;;;;;;;;;;8.22;56.38;99937.98;1670435;86;20130;-71
2022/10/16 04:10:30;;;;;;;;;;;;;;;8.20;56.59;99948.38;1670469;84;20148;-70
2022/10/16 04:12:56;;;;;;;;;;;;;;;8.18;56.70;99956.97;1670435;86;20110;-70
2022/10/16 04:15:24;;;;;;;;;;;;;;;8.15;56.87;99963.40;1670486;86;20201;-70
2022/10/16 04:17:52;;;;;;;;;;;;;;;8.12;57.00;99957.05;1670398;85;20150;-69
2022/10/16 04:20:20;;;;;;;;;;;;;;;8.08;57.13;99963.63;1670312;86;20464;-70
2022/10/16 04:22:46;;;;;;;;;;;;;;;8.03;57.29;99964.52;1670452;86;20185;-69
2022/10/16 04:25:13;;;;;;;;;;;;;;;7.98;57.53;99962.30;1670474;86;20118;-70
2022/10/16 04:27:39;;;;;;;;;;;;;;;7.93;57.69;99955.27;1670352;86;20162;-70
2022/10/16 04:30:07;;;;;;;;;;;;;;;7.88;57.86;99952.70;1670413;86;22130;-70
2022/10/16 04:32:34;;;;;;;;;;;;;;;7.82;58.11;99955.94;1670341;85;20125;-70
2022/10/16 04:35:01;;;;;;;;;;;;;;;7.76;58.34;99959.98;1670597;86;20122;-69
2022/10/16 04:37:27;;;;;;;;;;;;;;;7.71;58.50;99954.75;1680672;83;20142;-71
2022/10/16 04:39:53;;;;;;;;;;;;;;;7.65;58.72;99950.01;1672425;85;20143;-69
2022/10/16 04:42:20;;;;;;;;;;;;;;;7.62;58.95;99957.75;1684264;84;21176;-69
2022/10/16 04:44:46;;;;;;;;;;;;;;;7.59;59.14;99956.70;1685277;84;20155;-69
2022/10/16 04:47:13;;;;;;;;;;;;;;;7.58;59.30;99960.82;1682145;85;20124;-71
2022/10/16 04:49:40;;;;;;;;;;;;;;;7.56;59.48;99960.13;1673703;85;20136;-70
2022/10/16 04:52:06;;;;;;;;;;;;;;;7.59;59.67;99963.80;1677578;85;20128;-70
2022/10/16 04:54:32;;;;;;;;;;;;;;;7.66;59.73;99964.94;1652000;85;21320;-69
2022/10/16 04:56:58;;;;;;;;;;;;;;;7.76;59.72;99968.41;1673335;85;20103;-70
2022/10/16 04:59:25;;;;;;;;;;;;;;;7.88;59.64;99961.97;1680179;85;20182;-69
2022/10/16 05:01:51;;;;;;;;;;;;;;;8.03;59.49;99958.73;1684017;84;20429;-69
2022/10/16 05:04:17;;;;;;;;;;;;;;;8.22;59.26;99964.97;1682457;85;20440;-70
2022/10/16 05:06:43;;;;;;;;;;;;;;;8.42;58.79;99969.29;1675585;85;21847;-69
2022/10/16 05:09:11;;;;;;;;;;;;;;;8.61;58.49;99973.17;1678931;85;20132;-71
2022/10/16 05:11:38;;;;;;;;;;;;;;;8.83;58.03;99982.58;1682415;85;20092;-71
2022/10/16 05:14:05;;;;;;;;;;;;;;;9.02;57.60;99984.63;1674640;85;20122;-69
2022/10/16 05:16:32;;;;;;;;;;;;;;;9.24;57.19;99988.70;1676968;85;20178;-69
2022/10/16 05:19:00;;;;;;;;;;;;;;;9.47;56.52;99990.43;1687890;84;20107;-70
2022/10/16 05:21:27;;;;;;;;;;;;;;;9.69;56.04;99991.32;1679743;84;20103;-70
2022/10/16 05:23:55;;;;;;;;;;;;;;;9.89;55.45;99996.31;1682411;85;20100;-68
2022/10/16 05:26:21;;;;;;;;;;;;;;;10.10;54.96;99995.14;1682283;85;20096;-69
2022/10/16 05:28:47;;;;;;;;;;;;;;;10.30;54.41;99994.82;1682560;85;20088;-70
2022/10/16 05:31:14;;;;;;;;;;;;;;;10.45;53.87;99999.90;1683745;84;21704;-69
2022/10/16 05:33:41;;;;;;;;;;;;;;;10.61;53.49;99999.16;1686559;84;20087;-70
2022/10/16 05:36:08;;;;;;;;;;;;;;;10.82;53.08;100004.13;1672008;84;20087;-68
2022/10/16 05:38:35;;;;;;;;;;;;;;;11.03;52.57;99999.20;1645819;84;20163;-73
2022/10/16 05:41:02;;;;;;;;;;;;;;;11.23;51.95;100002.44;1680309;84;20129;-70
2022/10/16 05:43:28;;;;;;;;;;;;;;;11.36;51.61;100008.98;1681240;85;21161;-69
2022/10/16 05:46:04;;;;;;;;;;;;;;;11.55;51.28;100003.88;1682306;84;20437;-70
2022/10/16 05:48:31;;;;;;;;;;;;;;;11.78;50.82;99999.60;1682257;84;20465;-71
2022/10/16 05:51:03;;;;;;;;;;;;;;;12.03;50.36;99995.93;1677978;84;20437;-71
2022/10/16 05:53:30;;;;;;;;;;;;;;;12.26;49.69;99996.91;1676856;84;20196;-70
2022/10/16 05:55:56;;;;;;;;;;;;;;;12.46;49.16;100001.90;1679126;84;21886;-72
2022/10/16 05:58:23;;;;;;;;;;;;;;;12.65;48.62;100005.51;1682296;84;20453;-72
2022/10/16 06:00:55;;;;;;;;;;;;;;;12.81;48.21;99996.96;1674711;84;20540;-69
2022/10/16 06:03:21;;;;;;;;;;;;;;;12.98;47.67;100008.42;1681483;84;20119;-71
2022/10/16 06:05:47;;;;;;;;;;;;;;;13.07;47.41;100011.91;1676953;84;20091;-71
2022/10/16 06:08:14;;;;;;;;;;;;;;;13.28;47.23;100014.82;1675055;84;21225;-70
2022/10/16 06:10:40;;;;;;;;;;;;;;;13.58;46.54;100021.49;1686164;84;20210;-75
2022/10/16 06:13:06;;;;;;;;;;;;;;;13.82;46.05;100020.50;1682143;84;20180;-72
2022/10/16 06:15:33;;;;;;;;;;;;;;;14.02;45.39;100013.69;1676544;84;20136;-73
2022/10/16 06:17:59;;;;;;;;;;;;;;;14.28;45.21;100029.35;1683039;84;20171;-73
2022/10/16 06:20:26;;;;;;;;;;;;;;;14.60;44.52;100022.37;1674697;84;21157;-71
2022/10/16 06:22:52;;;;;;;;;;;;;;;14.89;44.05;100022.09;1682485;84;20104;-73
2022/10/16 06:25:18;;;;;;;;;;;;;;;15.16;43.55;100035.64;1682568;84;20100;-70
2022/10/16 06:27:44;;;;;;;;;;;;;;;15.39;43.04;100037.69;1682566;84;20116;-73
2022/10/16 06:30:11;;;;;;;;;;;;;;;15.75;42.15;100035.54;1682462;84;20104;-73
2022/10/16 06:32:38;;;;;;;;;;;;;;;16.06;41.21;100037.41;1682584;84;21248;-73
2022/10/16 06:35:04;;;;;;;;;;;;;;;16.28;40.56;100038.23;1682587;84;20096;-72
2022/10/16 06:37:31;;;;;;;;;;;;;;;16.52;40.25;100044.53;1681897;84;20122;-72
2022/10/16 06:39:59;;;;;;;;;;;;;;;16.79;39.70;100039.69;1690020;84;20100;-70
2022/10/16 06:42:26;;;;;;;;;;;;;;;17.07;39.35;100041.02;1705448;84;20114;-70
2022/10/16 06:44:54;;;;;;;;;;;;;;;17.27;38.70;100040.59;1682215;84;20674;-72
2022/10/16 06:47:21;;;;;;;;;;;;;;;17.40;38.06;100041.16;1673670;85;20453;-70
2022/10/16 06:49:47;;;;;;;;;;;;;;;17.42;37.97;100044.47;1671754;85;20170;-73
2022/10/16 06:52:13;;;;;;;;;;;;;;;17.38;37.88;100036.50;1663024;85;20183;-72
2022/10/16 06:54:39;;;;;;;;;;;;;;;17.34;37.91;100042.78;1663156;85;20157;-73
2022/10/16 06:57:07;;;;;;;;;;;;;;;17.27;38.14;100056.22;1671823;84;21271;-69
2022/10/16 06:59:34;;;;;;;;;;;;;;;17.33;37.76;100047.88;1698036;84;20103;-72
2022/10/16 07:02:00;;;;;;;;;;;;;;;17.33;37.61;100051.91;1668148;85;20149;-72
2022/10/16 07:04:26;;;;;;;;;;;;;;;17.41;37.65;100044.17;1663052;85;20118;-69
2022/10/16 07:06:53;;;;;;;;;;;;;;;17.38;37.88;100057.51;1664149;85;20431;-72
2022/10/16 07:09:19;;;;;;;;;;;;;;;17.51;38.15;100049.50;1695906;84;20570;-70
2022/10/16 07:11:47;;;;;;;;;;;;;;;17.84;37.43;100049.63;1677888;84;20431;-74
2022/10/16 07:14:18;;;;;;;;;;;;;;;17.96;37.03;100051.22;1670035;85;20092;-71
2022/10/16 07:16:45;;;;;;;;;;;;;;;17.96;37.16;100054.74;1674503;85;20119;-71
2022/10/16 07:19:14;;;;;;;;;;;;;;;18.08;36.98;100050.91;1682716;85;20442;-70
2022/10/16 07:21:40;;;;;;;;;;;;;;;18.11;36.85;100047.81;1663451;85;21104;-73
2022/10/16 07:24:13;;;;;;;;;;;;;;;17.96;36.98;100048.52;1666329;85;20091;-70
2022/10/16 07:26:39;;;;;;;;;;;;;;;17.88;37.11;100061.66;1677915;85;20137;-70
2022/10/16 07:29:15;;;;;;;;;;;;;;;17.86;37.02;100060.50;1695881;84;20094;-72
2022/10/16 07:31:42;;;;;;;;;;;;;;;17.80;36.90;100061.33;1685577;84;20204;-71
2022/10/16 07:34:09;;;;;;;;;;;;;;;17.61;37.23;100065.28;1665086;84;21711;-73
2022/10/16 07:36:37;;;;;;;;;;;;;;;17.61;37.31;100059.39;1685825;84;20114;-70
2022/10/16 07:39:03;;;;;;;;;;;;;;;17.55;37.27;100080.87;1685689;83;20148;-72
2022/10/16 07:41:32;;;;;;;;;;;;;;;17.45;37.65;100075.84;1716130;83;20144;-70
2022/10/16 07:43:59;;;;;;;;;;;;;;;17.43;38.00;100053.70;1670672;84;20097;-71
2022/10/16 07:46:26;;;;;;;;;;;;;;;17.53;38.20;100074.87;1670435;84;21148;-71
2022/10/16 07:48:53;;;;;;;;;;;;;;;17.67;38.01;100086.01;1670652;84;20105;-73
2022/10/16 07:51:21;;;;;;;;;;;;;;;17.93;37.57;100068.60;1670474;84;20161;-73
2022/10/16 07:53:48;;;;;;;;;;;;;;;18.12;37.43;100071.03;1670567;84;20089;-72
2022/10/16 07:56:15;;;;;;;;;;;;;;;18.26;37.27;100072.69;1686003;84;20127;-71
2022/10/16 07:58:42;;;;;;;;;;;;;;;18.45;36.88;100080.80;1674198;84;21818;-72
2022/10/16 08:01:10;;;;;;;;;;;;;;;18.61;36.87;100074.20;1693983;83;20438;-74
2022/10/16 08:03:37;;;;;;;;;;;;;;;18.84;36.71;100077.81;1697279;83;20429;-72
2022/10/16 08:06:05;;;;;;;;;;;;;;;19.09;36.26;100078.80;1719185;83;20125;-71
2022/10/16 08:08:31;;;;;;;;;;;;;;;19.29;35.89;100079.59;1722555;83;20094;-72
2022/10/16 08:10:57;;;;;;;;;;;;;;;19.45;35.54;100080.48;1705408;84;21150;-70
2022/10/16 08:13:24;;;;;;;;;;;;;;;19.54;35.25;100078.38;1679500;84;20114;-73
2022/10/16 08:15:50;;;;;;;;;;;;;;;19.68;35.27;100074.60;1662993;85;20169;-73
2022/10/16 08:18:16;;;;;;;;;;;;;;;19.78;34.75;100087.11;1663004;85;20222;-72
2022/10/16 08:20:44;;;;;;;;;;;;;;;19.81;34.33;100086.69;1692788;84;20086;-73
2022/10/16 08:23:12;;;;;;;;;;;;;;;19.66;34.48;100079.36;1675308;84;21260;-71
2022/10/16 08:25:39;;;;;;;;;;;;;;;19.71;34.71;100074.98;1689723;85;20097;-71
2022/10/16 08:28:06;;;;;;;;;;;;;;;19.82;34.80;100080.73;1688032;85;20088;-72
2022/10/16 08:30:34;;;;;;;;;;;;;;;19.94;34.86;100087.13;1721017;83;20442;-70
2022/10/16 08:33:00;;;;;;;;;;;;;;;20.14;34.78;100077.87;1719409;83;20121;-70
2022/10/16 08:35:26;;;;;;;;;;;;;;;20.42;34.32;100086.95;1719197;83;21131;-72
2022/10/16 08:37:53;;;;;;;;;;;;;;;20.52;34.09;100076.47;1670422;84;20122;-74
2022/10/16 08:40:25;;;;;;;;;;;;;;;20.55;34.10;100074.68;1677168;84;20194;-70
2022/10/16 08:43:17;;;;;;;;;;;;;;;20.58;34.04;100072.89;1683279;84;20498;-73
2022/10/16 08:45:51;;;;;;;;;;;;;;;20.65;33.68;100070.95;1680324;84;20099;-71
2022/10/16 08:48:27;;;;;;;;;;;;;;;20.67;33.81;100076.16;1683595;84;21179;-73
2022/10/16 08:50:53;;;;;;;;;;;;;;;20.79;33.67;100064.39;1655866;85;20142;-71
2022/10/16 08:53:26;;;;;;;;;;;;;;;21.01;33.30;100068.04;1657135;85;20129;-71
2022/10/16 08:55:53;;;;;;;;;;;;;;;21.25;32.97;100063.11;1689440;84;20086;-73
2022/10/16 08:58:21;;;;;;;;;;;;;;;21.31;32.85;100071.69;1668182;84;20181;-72
2022/10/16 09:00:55;;;;;;;;;;;;;;;21.27;32.52;100059.16;1655864;85;20721;-71
2022/10/16 09:03:28;;;;;;;;;;;;;;;21.15;32.78;100083.09;1683750;84;20126;-71
2022/10/16 09:06:33;;;;;;;;;;;;;;;21.12;32.58;100068.69;1693446;84;20088;-72
2022/10/16 09:09:12;;;;;;;;;;;;;;;21.10;32.87;100076.18;1666565;84;20141;-72
2022/10/16 09:11:57;;;;;;;;;;;;;;;21.10;32.84;100062.13;1673421;84;20094;-72
2022/10/16 09:14:36;;;;;;;;;;;;;;;21.11;32.66;100077.84;1665450;85;20119;-70
2022/10/16 09:17:15;;;;;;;;;;;;;;;21.14;32.54;100089.05;1685424;84;20122;-71
2022/10/16 09:20:00;;;;;;;;;;;;;;;21.05;32.55;100087.64;1655960;85;20086;-73
2022/10/16 09:22:28;;;;;;;;;;;;;;;21.01;32.74;100075.63;1660757;84;20206;-70
2022/10/16 09:24:57;;;;;;;;;;;;;;;21.20;32.94;100084.08;1679109;84;20444;-71
2022/10/16 09:27:23;;;;;;;;;;;;;;;21.42;32.45;100088.53;1678277;84;21159;-72
2022/10/16 09:29:50;;;;;;;;;;;;;;;21.58;31.90;100102.82;1698002;84;20133;-71
2022/10/16 09:32:19;;;;;;;;;;;;;;;21.57;32.08;100082.20;1669415;84;20119;-72
2022/10/16 09:34:48;;;;;;;;;;;;;;;21.70;32.07;100085.27;1678586;84;20078;-70
2022/10/16 09:37:17;;;;;;;;;;;;;;;21.85;31.79;100080.27;1671585;84;20118;-71
2022/10/16 09:39:49;;;;;;;;;;;;;;;22.08;31.27;100078.52;1685480;84;21686;-73
2022/10/16 09:42:21;;;;;;;;;;;;;;;22.01;31.20;100081.86;1672588;84;20102;-72
2022/10/16 09:44:50;;;;;;;;;;;;;;;21.94;31.34;100079.78;1697963;84;20179;-70
2022/10/16 09:47:24;;;;;;;;;;;;;;;22.07;31.41;100076.89;1687863;84;20090;-73
2022/10/16 09:49:53;;;;;;;;;;;;;;;22.07;31.20;100078.23;1668911;84;20150;-71
2022/10/16 09:52:19;;;;;;;;;;;;;;;22.04;31.06;100076.51;1655789;85;21141;-73
2022/10/16 09:54:51;;;;;;;;;;;;;;;22.10;30.95;100080.49;1682770;84;20115;-71
2022/10/16 09:57:17;;;;;;;;;;;;;;;22.09;30.90;100078.00;1685469;84;20126;-72
2022/10/16 09:59:49;;;;;;;;;;;;;;;22.16;31.10;100076.56;1672105;85;20261;-73
2022/10/16 10:02:17;;;;;;;;;;;;;;;22.14;30.87;100078.96;1657839;85;20115;-72
2022/10/16 10:04:51;;;;;;;;;;;;;;;21.84;31.04;100078.12;1678879;84;21152;-70
2022/10/16 10:07:20;;;;;;;;;;;;;;;21.49;31.85;100091.98;1659986;84;20090;-71
2022/10/16 10:09:46;;;;;;;;;;;;;;;21.22;32.12;100091.99;1678289;84;20100;-70
2022/10/16 10:12:27;;;;;;;;;;;;;;;21.06;32.54;100083.07;1684001;84;20158;-70
2022/10/16 10:14:56;;;;;;;;;;;;;;;20.97;33.04;100083.04;1670852;85;20095;-71
2022/10/16 10:17:27;;;;;;;;;;;;;;;20.85;33.10;100095.96;1666143;84;21152;-71
2022/10/16 10:20:34;;;;;;;;;;;;;;;20.77;32.98;100093.53;1697548;84;20118;-72
2022/10/16 10:23:01;;;;;;;;;;;;;;;20.71;32.88;100085.47;1692742;84;20151;-71
2022/10/16 10:25:34;;;;;;;;;;;;;;;20.49;33.53;100085.56;1664673;85;20243;-71
2022/10/16 10:28:08;;;;;;;;;;;;;;;20.34;34.07;100076.41;1665358;85;20448;-71
2022/10/16 10:31:10;;;;;;;;;;;;;;;20.20;34.12;100082.93;1655834;85;20460;-71
2022/10/16 10:34:12;;;;;;;;;;;;;;;20.07;34.26;100105.45;1662331;85;20122;-73
2022/10/16 10:36:40;;;;;;;;;;;;;;;19.99;34.39;100094.06;1675363;85;20163;-71
2022/10/16 10:39:27;;;;;;;;;;;;;;;19.93;34.56;100097.62;1657449;85;20506;-74
2022/10/16 10:42:14;;;;;;;;;;;;;;;19.88;34.55;100083.42;1638535;86;20100;-72
2022/10/16 10:45:01;;;;;;;;;;;;;;;19.81;34.72;100092.09;1656126;86;20709;-69
2022/10/16 10:47:49;;;;;;;;;;;;;;;19.73;34.82;100078.28;1655699;86;20445;-71
2022/10/16 10:50:20;;;;;;;;;;;;;;;19.68;34.99;100076.75;1670916;86;20130;-72
2022/10/16 10:53:00;;;;;;;;;;;;;;;19.74;34.75;100075.07;1668549;86;20116;-72
2022/10/16 10:55:39;;;;;;;;;;;;;;;19.83;34.88;100073.80;1666668;85;20154;-71
2022/10/16 10:58:25;;;;;;;;;;;;;;;19.95;34.43;100072.05;1672777;86;21167;-72
2022/10/16 11:01:13;;;;;;;;;;;;;;;19.97;34.66;100072.66;1672782;85;20121;-71
2022/10/16 11:03:55;;;;;;;;;;;;;;;20.01;34.69;100079.81;1672892;86;20123;-72
2022/10/16 11:06:30;;;;;;;;;;;;;;;19.94;34.79;100098.77;1672737;86;20119;-71
2022/10/16 11:09:09;;;;;;;;;;;;;;;19.94;34.51;100097.42;1666540;86;20470;-70
2022/10/16 11:11:52;;;;;;;;;;;;;;;19.97;34.45;100070.51;1672768;85;21162;-70
2022/10/16 11:14:31;;;;;;;;;;;;;;;19.95;34.54;100063.13;1672699;86;20145;-72
2022/10/16 11:17:21;;;;;;;;;;;;;;;19.97;34.53;100063.75;1672629;86;20118;-70
2022/10/16 11:20:12;;;;;;;;;;;;;;;19.96;34.50;100070.19;1672629;86;20210;-70
2022/10/16 11:22:43;;;;;;;;;;;;;;;19.92;34.46;100067.08;1672723;86;20189;-72
2022/10/16 11:25:27;;;;;;;;;;;;;;;19.87;34.60;100062.86;1667976;86;21571;-72
2022/10/16 11:28:03;;;;;;;;;;;;;;;19.84;34.86;100056.53;1670038;86;20106;-71
2022/10/16 11:30:31;;;;;;;;;;;;;;;19.78;34.52;100061.98;1669579;86;20166;-70
2022/10/16 11:33:04;;;;;;;;;;;;;;;19.70;34.65;100066.59;1666514;86;20124;-72
2022/10/16 11:35:49;;;;;;;;;;;;;;;19.62;34.76;100062.79;1672799;86;20150;-73
2022/10/16 11:38:31;;;;;;;;;;;;;;;19.54;34.89;100057.63;1673019;83;21275;-71
2022/10/16 11:41:04;;;;;;;;;;;;;;;19.46;35.19;100047.08;1682951;83;20435;-73
2022/10/16 11:43:39;;;;;;;;;;;;;;;19.42;35.34;100055.27;1686450;83;20102;-68
2022/10/16 11:46:12;;;;;;;;;;;;;;;19.37;35.43;100048.86;1670334;84;20106;-70
2022/10/16 11:48:54;;;;;;;;;;;;;;;19.25;35.76;100059.47;1679528;84;20419;-74
2022/10/16 11:51:27;;;;;;;;;;;;;;;19.15;35.89;100050.99;1704088;83;21167;-71
2022/10/16 11:54:01;;;;;;;;;;;;;;;19.04;36.19;100045.73;1670543;84;20097;-72
2022/10/16 11:56:27;;;;;;;;;;;;;;;18.93;36.67;100038.28;1688356;84;20115;-72
2022/10/16 11:59:02;;;;;;;;;;;;;;;18.95;36.54;100055.61;1704933;84;20140;-71
2022/10/16 12:01:38;;;;;;;;;;;;;;;18.99;36.35;100044.70;1689115;84;20094;-72
2022/10/16 12:04:17;;;;;;;;;;;;;;;19.00;36.38;100046.38;1683054;83;21141;-72
2022/10/16 12:06:58;;;;;;;;;;;;;;;18.96;36.63;100050.00;1680109;84;20106;-69
2022/10/16 12:09:29;;;;;;;;;;;;;;;18.87;36.48;100055.31;1690988;84;20103;-74
2022/10/16 12:11:57;;;;;;;;;;;;;;;18.78;36.70;100046.29;1697868;84;20120;-71
2022/10/16 12:14:29;;;;;;;;;;;;;;;18.69;36.65;100036.78;1678961;84;20098;-70
2022/10/16 12:17:00;;;;;;;;;;;;;;;18.62;36.80;100048.06;1694057;83;22011;-69
2022/10/16 12:19:29;;;;;;;;;;;;;;;18.54;37.00;100043.72;1699487;83;20465;-72
2022/10/16 12:21:58;;;;;;;;;;;;;;;18.42;37.19;100023.30;1681926;83;20099;-70
2022/10/16 12:24:31;;;;;;;;;;;;;;;18.33;37.34;100040.68;1672718;83;20118;-70
2022/10/16 12:26:58;;;;;;;;;;;;;;;18.29;37.48;100035.92;1672549;83;20154;-71
2022/10/16 12:29:38;;;;;;;;;;;;;;;18.26;37.90;100029.09;1689871;84;22059;-70
2022/10/16 12:32:23;;;;;;;;;;;;;;;18.29;37.75;100030.03;1693904;83;20408;-72
2022/10/16 12:34:50;;;;;;;;;;;;;;;18.27;37.90;100041.53;1712858;84;20153;-70
2022/10/16 12:37:25;;;;;;;;;;;;;;;18.22;38.08;100047.22;1687406;83;20114;-71
2022/10/16 12:39:52;;;;;;;;;;;;;;;18.15;38.31;100033.73;1684404;83;20147;-69
2022/10/16 12:42:27;;;;;;;;;;;;;;;18.09;38.70;100037.27;1681541;84;21160;-71
2022/10/16 12:44:54;;;;;;;;;;;;;;;18.07;38.62;100039.31;1695414;84;20103;-74
2022/10/16 12:47:33;;;;;;;;;;;;;;;18.02;38.66;100032.88;1694888;84;20146;-71
2022/10/16 12:49:59;;;;;;;;;;;;;;;18.00;38.76;100042.52;1694462;84;20087;-71
2022/10/16 12:52:30;;;;;;;;;;;;;;;17.97;38.94;100040.74;1679912;84;20087;-70
2022/10/16 12:55:00;;;;;;;;;;;;;;;17.92;38.74;100044.56;1677845;84;21821;-71
2022/10/16 12:57:42;;;;;;;;;;;;;;;17.88;38.82;100058.42;1681862;84;20476;-71
2022/10/16 13:00:15;;;;;;;;;;;;;;;17.87;38.93;100046.02;1683575;84;20134;-71
2022/10/16 13:02:49;;;;;;;;;;;;;;;17.86;39.18;100043.52;1689312;84;20491;-71